Terminal Aerodrome Forecast
Issued by NWS Aberdeen, SD

Home | Current Version | Previous Version | Text Only | Print | Product List | Glossary On
Versions: 1 2 3 4 5 6 7 8 9 10 11 12 13 14 15 16 17 18 19 20 21 22 23 24 25 26 27 28 29 30 31 32 33 34 35 36 37 38 39 40 41 42 43 44 45 46 47 48
000
FTAK31 PAFA 261737
TAFABR
TAF
PABR 261737Z 2618/2718 10004KT P6SM FEW060
     FM270800 09012KT 1SM BR OVC003
     FM271100 09009KT 1/2SM FG OVC003
     FM271600 09008KT 4SM BR FEW003 SCT010=

USA.gov is the U.S. government's official web portal to all federal, state and local government web resources and services.